createdAt,value
2023-02-22T00:02:22.577Z,7.32
2023-02-22T00:04:49.880Z,7.29
2023-02-22T00:07:17.472Z,7.37
2023-02-22T00:09:44.687Z,7.37
2023-02-22T00:12:12.316Z,7.42
2023-02-22T00:14:40.452Z,7.49
2023-02-22T00:17:08.053Z,7.49
2023-02-22T00:19:35.404Z,7.45
2023-02-22T00:22:03.142Z,7.44
2023-02-22T00:24:32.843Z,7.42
2023-02-22T00:27:00.396Z,7.35
2023-02-22T00:29:28.684Z,7.35
2023-02-22T00:31:56.399Z,7.25
2023-02-22T00:34:24.347Z,7.16
2023-02-22T00:36:52.070Z,7.16
2023-02-22T00:39:19.416Z,7.11
2023-02-22T00:41:47.205Z,7.17
2023-02-22T00:44:14.785Z,7.07
2023-02-22T00:46:42.457Z,7.00
2023-02-22T00:49:09.745Z,6.98
2023-02-22T00:51:37.578Z,6.98
2023-02-22T00:54:05.544Z,6.95
2023-02-22T00:56:35.186Z,6.94
2023-02-22T00:59:03.189Z,6.93
2023-02-22T01:01:31.490Z,6.94
2023-02-22T01:03:59.262Z,6.90
2023-02-22T01:06:27.162Z,6.90
2023-02-22T01:08:54.448Z,6.95
2023-02-22T01:11:22.473Z,6.95
2023-02-22T01:13:49.868Z,6.84
2023-02-22T01:16:17.559Z,6.86
2023-02-22T01:18:44.942Z,6.88
2023-02-22T01:21:12.648Z,6.88
2023-02-22T01:23:39.901Z,6.89
2023-02-22T01:26:07.470Z,6.92
2023-02-22T01:28:35.256Z,6.92
2023-02-22T01:31:03.331Z,6.86
2023-02-22T01:33:31.823Z,6.81
2023-02-22T01:36:00.268Z,6.79
2023-02-22T01:38:27.780Z,6.74
2023-02-22T01:40:55.558Z,6.69
2023-02-22T01:43:25.897Z,6.71
2023-02-22T01:46:25.031Z,6.67
2023-02-22T01:48:57.284Z,6.69
2023-02-22T01:51:37.631Z,6.69
2023-02-22T01:54:33.579Z,6.67
2023-02-22T01:57:11.390Z,6.64
2023-02-22T01:59:49.044Z,6.62
2023-02-22T02:02:19.077Z,6.61
2023-02-22T02:04:46.696Z,6.62
2023-02-22T02:07:18.722Z,6.61
2023-02-22T02:10:02.850Z,6.61
2023-02-22T02:12:35.949Z,6.61
2023-02-22T02:15:29.067Z,6.56
2023-02-22T02:18:02.518Z,6.60
2023-02-22T02:21:08.855Z,6.58
2023-02-22T02:24:19.276Z,6.61
2023-02-22T02:27:23.995Z,6.61
2023-02-22T02:30:06.449Z,6.64
2023-02-22T02:32:59.948Z,6.65
2023-02-22T02:36:00.607Z,6.63
2023-02-22T02:38:59.440Z,6.65
2023-02-22T02:41:41.926Z,6.69
2023-02-22T02:44:22.818Z,6.74
2023-02-22T02:47:14.491Z,6.77
2023-02-22T02:49:58.222Z,6.73
2023-02-22T02:52:29.308Z,6.73
2023-02-22T02:54:58.228Z,6.70
2023-02-22T02:57:25.951Z,6.74
2023-02-22T02:59:53.305Z,6.76
2023-02-22T03:02:35.577Z,6.75
2023-02-22T03:05:31.916Z,6.65
2023-02-22T03:08:21.118Z,6.65
2023-02-22T03:11:21.523Z,6.55
2023-02-22T03:14:22.197Z,6.56
2023-02-22T03:17:47.908Z,6.57
2023-02-22T03:20:33.264Z,6.58
2023-02-22T03:23:28.849Z,6.54
2023-02-22T03:26:12.235Z,6.51
2023-02-22T03:28:46.614Z,6.47
2023-02-22T03:31:33.137Z,6.44
2023-02-22T03:34:08.942Z,6.39
2023-02-22T03:36:57.879Z,6.36
2023-02-22T03:39:31.308Z,6.34
2023-02-22T03:42:12.092Z,6.32
2023-02-22T03:44:42.975Z,6.36
2023-02-22T03:47:18.642Z,6.33
2023-02-22T03:50:07.579Z,6.35
2023-02-22T03:52:36.607Z,6.39
2023-02-22T03:55:11.266Z,6.37
2023-02-22T03:57:46.915Z,6.36
2023-02-22T04:00:20.123Z,6.40
2023-02-22T04:02:47.873Z,6.45
2023-02-22T04:05:20.473Z,6.46
2023-02-22T04:07:48.309Z,6.46
2023-02-22T04:10:17.062Z,6.41
2023-02-22T04:12:44.804Z,6.40
2023-02-22T04:15:20.226Z,6.38
2023-02-22T04:17:48.046Z,6.34
2023-02-22T04:20:20.053Z,6.27
2023-02-22T04:22:47.680Z,6.24
2023-02-22T04:25:15.690Z,6.17
2023-02-22T04:27:43.237Z,6.17
2023-02-22T04:30:12.269Z,6.17
2023-02-22T04:32:40.200Z,6.24
2023-02-22T04:35:08.129Z,6.30
2023-02-22T04:37:35.981Z,6.19
2023-02-22T04:40:07.962Z,6.21
2023-02-22T04:42:37.262Z,6.19
2023-02-22T04:45:08.517Z,6.19
2023-02-22T04:47:37.702Z,6.15
2023-02-22T04:50:09.337Z,6.16
2023-02-22T04:52:37.096Z,6.18
2023-02-22T04:55:05.308Z,6.22
2023-02-22T04:57:33.275Z,6.16
2023-02-22T05:00:00.550Z,6.15
2023-02-22T05:02:28.760Z,6.18
2023-02-22T05:04:56.136Z,6.21
2023-02-22T05:07:23.779Z,6.18
2023-02-22T05:09:51.126Z,6.16
2023-02-22T05:12:18.800Z,6.04
2023-02-22T05:14:46.070Z,6.01
2023-02-22T05:17:13.918Z,5.93
2023-02-22T05:19:42.144Z,5.90
2023-02-22T05:22:09.712Z,5.88
2023-02-22T05:24:37.281Z,5.84
2023-02-22T05:27:04.857Z,5.89
2023-02-22T05:29:32.519Z,5.89
2023-02-22T05:32:00.312Z,5.95
2023-02-22T05:34:27.662Z,6.00
2023-02-22T05:36:55.241Z,6.05
2023-02-22T05:39:22.563Z,6.03
2023-02-22T05:41:50.510Z,6.08
2023-02-22T05:44:17.950Z,6.17
2023-02-22T05:46:45.616Z,6.20
2023-02-22T05:49:12.973Z,6.18
2023-02-22T05:51:40.571Z,6.08
2023-02-22T05:54:08.291Z,6.11
2023-02-22T05:56:36.668Z,6.24
2023-02-22T05:59:04.054Z,6.31
2023-02-22T06:01:31.669Z,6.26
2023-02-22T06:03:58.951Z,6.34
2023-02-22T06:06:26.495Z,6.44
2023-02-22T06:08:53.800Z,6.52
2023-02-22T06:11:21.449Z,6.63
2023-02-22T06:13:53.594Z,6.71
2023-02-22T06:16:22.597Z,6.78
2023-02-22T06:18:50.384Z,6.92
2023-02-22T06:21:18.467Z,6.98
2023-02-22T06:23:45.850Z,7.06
2023-02-22T06:26:17.825Z,7.04
2023-02-22T06:28:46.880Z,7.04
2023-02-22T06:31:14.762Z,7.10
2023-02-22T06:33:42.128Z,7.11
2023-02-22T06:36:10.741Z,7.14
2023-02-22T06:38:38.091Z,7.17
2023-02-22T06:41:05.857Z,7.17
2023-02-22T06:43:33.086Z,7.19
2023-02-22T06:46:00.795Z,7.31
2023-02-22T06:48:28.198Z,7.37
2023-02-22T06:50:55.785Z,7.42
2023-02-22T06:53:23.235Z,7.49
2023-02-22T06:55:55.104Z,7.53
2023-02-22T06:58:22.600Z,7.63
2023-02-22T07:00:50.258Z,7.52
2023-02-22T07:03:17.621Z,7.59
2023-02-22T07:05:45.384Z,7.48
2023-02-22T07:08:13.295Z,7.40
2023-02-22T07:10:41.229Z,7.43
2023-02-22T07:13:09.434Z,7.44
2023-02-22T07:15:37.330Z,7.47
2023-02-22T07:18:05.778Z,7.42
2023-02-22T07:20:34.516Z,7.57
2023-02-22T07:23:02.225Z,7.51
2023-02-22T07:25:29.966Z,7.58
2023-02-22T07:27:57.602Z,7.53
2023-02-22T07:30:34.365Z,7.62
2023-02-22T07:33:08.002Z,7.73
2023-02-22T07:35:46.549Z,7.82
2023-02-22T07:38:17.037Z,7.87
2023-02-22T07:40:45.936Z,7.96
2023-02-22T07:43:21.007Z,8.02
2023-02-22T07:45:52.422Z,8.06
2023-02-22T07:48:23.674Z,8.14
2023-02-22T07:50:51.571Z,8.20
2023-02-22T07:53:28.612Z,8.23
2023-02-22T07:56:02.748Z,8.33
2023-02-22T07:58:32.603Z,8.41
2023-02-22T08:01:03.773Z,8.58
2023-02-22T08:03:36.821Z,8.69
2023-02-22T08:06:07.256Z,8.78
2023-02-22T08:08:34.722Z,8.87
2023-02-22T08:11:02.975Z,8.98
2023-02-22T08:13:30.369Z,9.07
2023-02-22T08:15:58.054Z,9.14
2023-02-22T08:18:26.274Z,9.23
2023-02-22T08:20:54.539Z,9.31
2023-02-22T08:23:27.077Z,9.43
2023-02-22T08:25:55.576Z,9.55
2023-02-22T08:28:24.563Z,9.56
2023-02-22T08:30:52.600Z,9.67
2023-02-22T08:33:21.645Z,9.71
2023-02-22T08:35:50.016Z,9.76
2023-02-22T08:38:31.173Z,9.72
2023-02-22T08:40:58.997Z,9.66
2023-02-22T08:43:26.396Z,9.71
2023-02-22T08:45:57.194Z,9.83
2023-02-22T08:48:24.960Z,9.89
2023-02-22T08:50:52.531Z,9.91
2023-02-22T08:53:19.921Z,9.93
2023-02-22T08:55:47.603Z,9.90
2023-02-22T08:58:15.237Z,9.97
2023-02-22T09:00:44.853Z,10.05
2023-02-22T09:03:15.647Z,10.13
2023-02-22T09:05:44.975Z,10.24
2023-02-22T09:08:12.842Z,10.36
2023-02-22T09:10:41.110Z,10.44
2023-02-22T09:13:09.129Z,10.58
2023-02-22T09:15:37.056Z,10.66
2023-02-22T09:18:10.925Z,10.77
2023-02-22T09:20:38.768Z,10.92
2023-02-22T09:23:07.435Z,11.09
2023-02-22T09:25:35.834Z,11.28
2023-02-22T09:28:03.230Z,11.42
2023-02-22T09:30:36.695Z,11.51
2023-02-22T09:33:31.934Z,11.65
2023-02-22T09:36:00.972Z,11.80
2023-02-22T09:38:30.248Z,11.93
2023-02-22T09:41:07.952Z,12.02
2023-02-22T09:44:07.660Z,12.14
2023-02-22T09:46:42.187Z,12.28
2023-02-22T09:49:30.017Z,12.29
2023-02-22T09:52:30.723Z,12.41
2023-02-22T09:55:16.925Z,12.41
2023-02-22T09:57:46.330Z,12.52
2023-02-22T10:00:21.604Z,12.65
2023-02-22T10:03:13.604Z,12.68
2023-02-22T10:05:48.277Z,12.74
2023-02-22T10:08:19.453Z,12.95
2023-02-22T10:10:58.573Z,12.98
2023-02-22T10:13:34.892Z,13.12
2023-02-22T10:16:14.402Z,13.27
2023-02-22T10:19:02.198Z,13.52
2023-02-22T10:21:47.933Z,13.94
2023-02-22T10:24:39.785Z,14.31
2023-02-22T10:27:28.421Z,14.82
2023-02-22T10:30:23.359Z,15.25
2023-02-22T10:33:22.063Z,15.67
2023-02-22T10:35:53.779Z,15.87
2023-02-22T10:38:23.691Z,16.62
2023-02-22T10:41:09.725Z,17.14
2023-02-22T10:43:43.312Z,16.95
2023-02-22T10:46:21.311Z,16.52
2023-02-22T10:48:54.713Z,16.27
2023-02-22T10:51:22.505Z,16.11
2023-02-22T10:54:15.210Z,15.52
2023-02-22T10:56:55.913Z,15.07
2023-02-22T10:59:42.645Z,14.93
2023-02-22T11:02:27.751Z,14.59
2023-02-22T11:04:59.259Z,14.13
2023-02-22T11:07:35.784Z,13.75
2023-02-22T11:10:09.395Z,13.42
2023-02-22T11:12:42.466Z,13.12
2023-02-22T11:15:22.389Z,12.98
2023-02-22T11:17:53.980Z,12.85
2023-02-22T11:20:35.320Z,12.75
2023-02-22T11:23:05.694Z,12.70
2023-02-22T11:25:38.580Z,12.69
2023-02-22T11:28:20.333Z,12.73
2023-02-22T11:30:52.311Z,12.78
2023-02-22T11:33:24.368Z,12.80
2023-02-22T11:36:02.553Z,12.93
2023-02-22T11:38:33.614Z,13.09
2023-02-22T11:41:23.081Z,13.58
2023-02-22T11:43:54.490Z,15.32
2023-02-22T11:46:27.160Z,15.73
2023-02-22T11:49:10.639Z,16.02
2023-02-22T11:52:08.263Z,16.03
2023-02-22T11:55:03.153Z,15.57
2023-02-22T11:57:54.011Z,15.29
2023-02-22T12:00:54.094Z,15.03
2023-02-22T12:03:39.222Z,14.69
2023-02-22T12:06:40.549Z,14.44
2023-02-22T12:09:40.848Z,14.33
2023-02-22T12:12:36.414Z,14.40
2023-02-22T12:15:18.761Z,14.76
2023-02-22T12:18:18.391Z,15.30
2023-02-22T12:21:00.083Z,15.32
2023-02-22T12:24:04.356Z,15.10
2023-02-22T12:27:01.321Z,14.95
2023-02-22T12:29:40.547Z,15.14
2023-02-22T12:32:29.331Z,15.55
2023-02-22T12:35:10.015Z,16.18
2023-02-22T12:38:05.161Z,16.34
2023-02-22T12:41:08.989Z,16.20
2023-02-22T12:44:04.286Z,16.01
2023-02-22T12:46:40.488Z,15.45
2023-02-22T12:49:49.773Z,14.94
2023-02-22T12:52:44.039Z,14.44
2023-02-22T12:55:25.882Z,14.31
2023-02-22T12:58:26.109Z,14.11
2023-02-22T13:01:14.642Z,13.94
2023-02-22T13:03:44.421Z,13.84
2023-02-22T13:06:45.592Z,13.72
2023-02-22T13:09:45.455Z,13.69
2023-02-22T13:12:27.746Z,13.95
2023-02-22T13:15:29.298Z,14.06
2023-02-22T13:18:25.862Z,14.27
2023-02-22T13:21:29.479Z,14.28
2023-02-22T13:24:26.782Z,14.36
2023-02-22T13:27:06.616Z,14.53
2023-02-22T13:29:47.358Z,14.93
2023-02-22T13:32:27.568Z,15.14
2023-02-22T13:35:12.642Z,15.02
2023-02-22T13:38:11.937Z,15.09
2023-02-22T13:41:23.930Z,14.91
2023-02-22T13:44:04.244Z,14.92
2023-02-22T13:46:49.535Z,14.92
2023-02-22T13:49:35.688Z,15.07
2023-02-22T13:52:19.684Z,15.83
2023-02-22T13:54:58.269Z,16.32
2023-02-22T13:57:38.377Z,16.34
2023-02-22T14:00:21.000Z,16.22
2023-02-22T14:03:13.081Z,15.95
2023-02-22T14:05:46.386Z,15.61
2023-02-22T14:08:19.726Z,15.24
2023-02-22T14:10:50.898Z,14.97
2023-02-22T14:13:26.821Z,14.72
2023-02-22T14:16:00.637Z,14.23
2023-02-22T14:18:36.187Z,13.82
2023-02-22T14:21:22.236Z,13.73
2023-02-22T14:23:52.035Z,13.54
2023-02-22T14:26:35.839Z,13.44
2023-02-22T14:29:09.572Z,13.31
2023-02-22T14:31:52.210Z,13.33
2023-02-22T14:34:39.609Z,13.44
2023-02-22T14:37:17.477Z,13.42
2023-02-22T14:39:51.344Z,13.44
2023-02-22T14:42:28.031Z,13.50
2023-02-22T14:45:14.605Z,13.50
2023-02-22T14:48:11.817Z,13.20
2023-02-22T14:50:45.311Z,12.95
2023-02-22T14:53:20.158Z,12.85
2023-02-22T14:55:56.694Z,12.69
2023-02-22T14:58:41.680Z,12.58
2023-02-22T15:01:47.336Z,12.51
2023-02-22T15:04:33.798Z,12.44
2023-02-22T15:07:09.622Z,12.38
2023-02-22T15:09:37.794Z,12.05
2023-02-22T15:12:05.382Z,11.91
2023-02-22T15:14:39.147Z,12.00
2023-02-22T15:17:24.728Z,12.05
2023-02-22T15:19:55.282Z,11.96
2023-02-22T15:22:28.300Z,11.52
2023-02-22T15:25:06.678Z,11.37
2023-02-22T15:27:37.448Z,11.24
2023-02-22T15:30:33.091Z,11.07
2023-02-22T15:33:34.242Z,10.79
2023-02-22T15:36:02.065Z,10.79
2023-02-22T15:38:31.243Z,10.74
2023-02-22T15:41:13.830Z,10.59
2023-02-22T15:43:41.838Z,10.46
2023-02-22T15:46:09.979Z,10.48
2023-02-22T15:48:41.327Z,10.40
2023-02-22T15:51:15.566Z,10.30
2023-02-22T15:53:49.696Z,10.09
2023-02-22T15:56:30.153Z,10.01
2023-02-22T15:59:13.891Z,9.78
2023-02-22T16:01:45.978Z,9.66
2023-02-22T16:04:27.466Z,9.53
2023-02-22T16:07:17.238Z,9.31
2023-02-22T16:09:52.230Z,9.26
2023-02-22T16:12:24.768Z,9.25
2023-02-22T16:14:52.664Z,9.26
2023-02-22T16:18:02.296Z,9.22
2023-02-22T16:20:30.533Z,9.15
2023-02-22T16:22:58.557Z,9.10
2023-02-22T16:25:35.672Z,8.90
2023-02-22T16:28:26.116Z,8.76
2023-02-22T16:31:00.358Z,8.46
2023-02-22T16:33:34.033Z,8.31
2023-02-22T16:36:08.257Z,8.25
2023-02-22T16:38:38.601Z,8.22
2023-02-22T16:41:07.792Z,8.22
2023-02-22T16:43:36.117Z,8.24
2023-02-22T16:46:07.090Z,8.06
2023-02-22T16:48:38.392Z,7.99
2023-02-22T16:51:26.738Z,7.91
2023-02-22T16:53:56.230Z,7.71
2023-02-22T16:56:31.024Z,7.62
2023-02-22T16:59:08.506Z,7.72
2023-02-22T17:01:35.931Z,7.74
2023-02-22T17:04:14.592Z,7.65
2023-02-22T17:06:41.966Z,7.63
2023-02-22T17:09:10.705Z,7.64
2023-02-22T17:11:39.351Z,7.50
2023-02-22T17:14:07.086Z,7.55
2023-02-22T17:16:34.657Z,7.56
2023-02-22T17:19:05.083Z,7.54
2023-02-22T17:21:32.464Z,7.51
2023-02-22T17:24:00.111Z,7.48
2023-02-22T17:26:28.352Z,7.46
2023-02-22T17:28:56.019Z,7.46
2023-02-22T17:31:29.304Z,7.44
2023-02-22T17:34:04.973Z,7.38
2023-02-22T17:36:36.517Z,7.38
2023-02-22T17:39:06.139Z,7.35
2023-02-22T17:41:33.500Z,7.31
2023-02-22T17:44:01.195Z,7.25
2023-02-22T17:46:28.731Z,7.21
2023-02-22T17:48:56.474Z,7.07
2023-02-22T17:51:26.494Z,7.02
2023-02-22T17:53:54.213Z,6.92
2023-02-22T17:56:22.075Z,6.87
2023-02-22T17:58:53.949Z,6.84
2023-02-22T18:01:32.291Z,6.84
2023-02-22T18:04:03.199Z,6.84
2023-02-22T18:06:33.819Z,6.80
2023-02-22T18:09:10.250Z,6.80
2023-02-22T18:11:40.137Z,6.80
2023-02-22T18:14:10.151Z,6.77
2023-02-22T18:16:39.545Z,6.75
2023-02-22T18:19:07.418Z,6.72
2023-02-22T18:21:34.939Z,6.73
2023-02-22T18:24:04.239Z,6.71
2023-02-22T18:26:31.819Z,6.68
2023-02-22T18:29:01.294Z,6.67
2023-02-22T18:31:29.262Z,6.65
2023-02-22T18:33:57.716Z,6.62
2023-02-22T18:36:25.760Z,6.61
2023-02-22T18:38:55.302Z,6.57
2023-02-22T18:41:25.565Z,6.52
2023-02-22T18:43:55.717Z,6.51
2023-02-22T18:46:25.606Z,6.50
2023-02-22T18:48:56.488Z,6.45
2023-02-22T18:51:26.251Z,6.47
2023-02-22T18:54:00.780Z,6.52
2023-02-22T18:56:30.366Z,6.56
2023-02-22T18:59:01.583Z,6.59
2023-02-22T19:01:31.338Z,6.66
2023-02-22T19:04:01.260Z,6.71
2023-02-22T19:06:28.643Z,6.72
2023-02-22T19:08:56.300Z,6.69
2023-02-22T19:11:25.227Z,6.71
2023-02-22T19:13:57.234Z,6.58
2023-02-22T19:16:27.476Z,6.48
2023-02-22T19:18:59.318Z,6.42
2023-02-22T19:21:29.991Z,6.36
2023-02-22T19:23:57.745Z,6.36
2023-02-22T19:26:27.759Z,6.30
2023-02-22T19:28:58.849Z,6.24
2023-02-22T19:31:31.560Z,6.16
2023-02-22T19:34:11.609Z,6.11
2023-02-22T19:36:45.985Z,6.11
2023-02-22T19:39:15.627Z,6.10
2023-02-22T19:41:43.743Z,6.03
2023-02-22T19:44:12.405Z,6.03
2023-02-22T19:46:40.697Z,5.97
2023-02-22T19:49:08.621Z,5.92
2023-02-22T19:51:36.212Z,5.87
2023-02-22T19:54:08.281Z,5.81
2023-02-22T19:56:36.533Z,5.76
2023-02-22T19:59:12.864Z,5.67
2023-02-22T20:01:44.501Z,5.64
2023-02-22T20:04:18.360Z,5.63
2023-02-22T20:06:52.047Z,5.62
2023-02-22T20:09:44.517Z,5.57
2023-02-22T20:12:12.080Z,5.50
2023-02-22T20:14:40.093Z,5.35
2023-02-22T20:17:08.158Z,5.30
2023-02-22T20:19:37.754Z,5.28
2023-02-22T20:22:05.304Z,5.30
2023-02-22T20:24:32.992Z,5.26
2023-02-22T20:27:00.377Z,5.27
2023-02-22T20:29:31.007Z,5.28
2023-02-22T20:32:01.463Z,5.25
2023-02-22T20:34:32.573Z,5.24
2023-02-22T20:37:01.465Z,5.21
2023-02-22T20:39:29.826Z,5.18
2023-02-22T20:42:00.641Z,5.19
2023-02-22T20:44:28.594Z,5.16
2023-02-22T20:46:56.087Z,5.09
2023-02-22T20:49:23.796Z,5.06
2023-02-22T20:51:51.240Z,4.99
2023-02-22T20:54:18.933Z,4.99
2023-02-22T20:56:47.750Z,4.94
2023-02-22T20:59:18.892Z,4.91
2023-02-22T21:01:49.461Z,4.93
2023-02-22T21:04:17.954Z,4.89
2023-02-22T21:06:46.814Z,4.87
2023-02-22T21:09:21.676Z,4.80
2023-02-22T21:11:49.293Z,4.74
2023-02-22T21:14:20.851Z,4.72
2023-02-22T21:16:51.965Z,4.63
2023-02-22T21:19:26.587Z,4.49
2023-02-22T21:21:56.527Z,4.10
2023-02-22T21:24:26.744Z,3.86
2023-02-22T21:26:55.769Z,3.81
2023-02-22T21:29:24.662Z,3.73
2023-02-22T21:31:52.164Z,3.74
2023-02-22T21:34:20.177Z,3.69
2023-02-22T21:36:47.490Z,3.63
2023-02-22T21:39:19.297Z,3.58
2023-02-22T21:41:49.719Z,3.61
2023-02-22T21:44:18.946Z,3.57
2023-02-22T21:46:50.776Z,3.66
2023-02-22T21:49:23.301Z,3.60
2023-02-22T21:51:52.601Z,3.68
2023-02-22T21:54:20.803Z,3.76
2023-02-22T21:56:48.599Z,3.80
2023-02-22T21:59:20.242Z,3.77
2023-02-22T22:01:51.458Z,3.68
2023-02-22T22:04:22.763Z,3.68
2023-02-22T22:06:53.556Z,3.54
2023-02-22T22:09:23.729Z,3.53
2023-02-22T22:11:58.412Z,3.42
2023-02-22T22:14:27.390Z,3.38
2023-02-22T22:17:00.278Z,3.37
2023-02-22T22:19:30.576Z,3.34
2023-02-22T22:21:58.708Z,3.37
2023-02-22T22:24:29.650Z,3.29
2023-02-22T22:26:57.000Z,3.11
2023-02-22T22:29:28.626Z,3.25
2023-02-22T22:31:56.813Z,3.34
2023-02-22T22:34:24.595Z,3.09
2023-02-22T22:36:51.936Z,3.07
2023-02-22T22:39:21.216Z,3.13
2023-02-22T22:41:48.771Z,2.99
2023-02-22T22:44:22.380Z,2.92
2023-02-22T22:46:53.826Z,2.90
2023-02-22T22:49:23.776Z,2.99
2023-02-22T22:51:51.438Z,3.01
2023-02-22T22:54:19.147Z,3.00
2023-02-22T22:56:46.588Z,2.96
2023-02-22T22:59:15.362Z,2.90
2023-02-22T23:01:46.605Z,2.91
2023-02-22T23:04:17.021Z,3.02
2023-02-22T23:06:54.355Z,2.94
2023-02-22T23:09:31.681Z,2.88
2023-02-22T23:12:09.267Z,2.93
2023-02-22T23:14:44.161Z,3.01
2023-02-22T23:17:26.890Z,3.13
2023-02-22T23:19:55.014Z,3.13
2023-02-22T23:22:22.396Z,3.04
2023-02-22T23:24:50.037Z,2.95
2023-02-22T23:27:19.076Z,2.89
2023-02-22T23:29:47.164Z,2.95
2023-02-22T23:32:14.727Z,3.02
2023-02-22T23:34:42.398Z,2.97
2023-02-22T23:37:10.877Z,3.16
2023-02-22T23:39:38.993Z,2.95
2023-02-22T23:42:09.001Z,2.95
2023-02-22T23:44:36.693Z,3.05
2023-02-22T23:47:04.561Z,2.93
2023-02-22T23:49:38.658Z,2.82
2023-02-22T23:52:08.611Z,2.81
2023-02-22T23:54:43.849Z,2.84
2023-02-22T23:57:11.408Z,2.86
2023-02-22T23:59:40.493Z,2.83
